sensor_id;sensor_type;location;lat;lon;timestamp;P1;durP1;ratioP1;P2;durP2;ratioP2
74528;SDS011;63009;52.584;5.932;2024-01-06T00:01:59;18.95;;;9.25;;
74528;SDS011;63009;52.584;5.932;2024-01-06T00:04:25;24.42;;;10.75;;
74528;SDS011;63009;52.584;5.932;2024-01-06T00:06:50;21.23;;;9.57;;
74528;SDS011;63009;52.584;5.932;2024-01-06T00:09:15;19.27;;;10.43;;
74528;SDS011;63009;52.584;5.932;2024-01-06T00:11:41;19.93;;;9.57;;
74528;SDS011;63009;52.584;5.932;2024-01-06T00:14:06;18.48;;;9.07;;
74528;SDS011;63009;52.584;5.932;2024-01-06T00:16:31;20.13;;;10.27;;
74528;SDS011;63009;52.584;5.932;2024-01-06T00:18:56;21.27;;;10.38;;
74528;SDS011;63009;52.584;5.932;2024-01-06T00:21:22;21.03;;;11.20;;
74528;SDS011;63009;52.584;5.932;2024-01-06T00:23:50;20.50;;;9.45;;
74528;SDS011;63009;52.584;5.932;2024-01-06T00:26:15;21.33;;;10.55;;
74528;SDS011;63009;52.584;5.932;2024-01-06T00:28:41;21.83;;;11.20;;
74528;SDS011;63009;52.584;5.932;2024-01-06T00:31:06;24.97;;;10.63;;
74528;SDS011;63009;52.584;5.932;2024-01-06T00:33:31;21.40;;;10.98;;
74528;SDS011;63009;52.584;5.932;2024-01-06T00:35:57;21.10;;;10.73;;
74528;SDS011;63009;52.584;5.932;2024-01-06T00:38:23;21.45;;;10.40;;
74528;SDS011;63009;52.584;5.932;2024-01-06T00:40:48;22.10;;;11.20;;
74528;SDS011;63009;52.584;5.932;2024-01-06T00:43:14;19.77;;;9.47;;
74528;SDS011;63009;52.584;5.932;2024-01-06T00:45:39;17.30;;;8.20;;
74528;SDS011;63009;52.584;5.932;2024-01-06T00:48:04;25.08;;;11.43;;
74528;SDS011;63009;52.584;5.932;2024-01-06T00:50:30;21.20;;;9.38;;
74528;SDS011;63009;52.584;5.932;2024-01-06T00:52:55;22.88;;;10.35;;
74528;SDS011;63009;52.584;5.932;2024-01-06T00:55:24;22.00;;;9.63;;
74528;SDS011;63009;52.584;5.932;2024-01-06T00:57:49;19.85;;;9.73;;
74528;SDS011;63009;52.584;5.932;2024-01-06T01:00:15;23.58;;;11.02;;
74528;SDS011;63009;52.584;5.932;2024-01-06T01:02:40;24.65;;;11.73;;
74528;SDS011;63009;52.584;5.932;2024-01-06T01:05:06;22.65;;;10.50;;
74528;SDS011;63009;52.584;5.932;2024-01-06T01:07:34;23.15;;;10.27;;
74528;SDS011;63009;52.584;5.932;2024-01-06T01:09:59;23.48;;;10.85;;
74528;SDS011;63009;52.584;5.932;2024-01-06T01:12:25;21.43;;;9.93;;
74528;SDS011;63009;52.584;5.932;2024-01-06T01:14:51;22.95;;;10.15;;
74528;SDS011;63009;52.584;5.932;2024-01-06T01:17:16;22.10;;;10.13;;
74528;SDS011;63009;52.584;5.932;2024-01-06T01:19:42;24.33;;;10.95;;
74528;SDS011;63009;52.584;5.932;2024-01-06T01:22:07;25.40;;;11.90;;
74528;SDS011;63009;52.584;5.932;2024-01-06T01:24:33;22.75;;;10.15;;
74528;SDS011;63009;52.584;5.932;2024-01-06T01:26:59;25.35;;;11.63;;
74528;SDS011;63009;52.584;5.932;2024-01-06T01:29:24;22.83;;;11.20;;
74528;SDS011;63009;52.584;5.932;2024-01-06T01:31:49;24.40;;;11.97;;
74528;SDS011;63009;52.584;5.932;2024-01-06T01:34:15;25.13;;;12.50;;
74528;SDS011;63009;52.584;5.932;2024-01-06T01:36:40;21.73;;;10.17;;
74528;SDS011;63009;52.584;5.932;2024-01-06T01:39:06;23.67;;;11.77;;
74528;SDS011;63009;52.584;5.932;2024-01-06T01:41:31;24.03;;;10.47;;
74528;SDS011;63009;52.584;5.932;2024-01-06T01:43:56;21.30;;;10.07;;
74528;SDS011;63009;52.584;5.932;2024-01-06T01:46:25;23.17;;;9.77;;
74528;SDS011;63009;52.584;5.932;2024-01-06T01:48:51;21.63;;;10.95;;
74528;SDS011;63009;52.584;5.932;2024-01-06T01:51:17;24.17;;;11.32;;
74528;SDS011;63009;52.584;5.932;2024-01-06T01:53:44;25.70;;;12.18;;
74528;SDS011;63009;52.584;5.932;2024-01-06T01:56:09;24.65;;;11.63;;
74528;SDS011;63009;52.584;5.932;2024-01-06T01:58:35;22.30;;;10.38;;
74528;SDS011;63009;52.584;5.932;2024-01-06T02:01:02;22.42;;;10.68;;
74528;SDS011;63009;52.584;5.932;2024-01-06T02:03:27;23.75;;;11.23;;
74528;SDS011;63009;52.584;5.932;2024-01-06T02:05:55;20.92;;;10.43;;
74528;SDS011;63009;52.584;5.932;2024-01-06T02:08:20;19.20;;;10.05;;
74528;SDS011;63009;52.584;5.932;2024-01-06T02:10:46;21.45;;;9.10;;
74528;SDS011;63009;52.584;5.932;2024-01-06T02:13:11;24.92;;;10.25;;
74528;SDS011;63009;52.584;5.932;2024-01-06T02:15:37;21.75;;;9.70;;
74528;SDS011;63009;52.584;5.932;2024-01-06T02:18:03;23.27;;;9.60;;
74528;SDS011;63009;52.584;5.932;2024-01-06T02:20:29;23.35;;;10.57;;
74528;SDS011;63009;52.584;5.932;2024-01-06T02:22:57;21.38;;;9.38;;
74528;SDS011;63009;52.584;5.932;2024-01-06T02:25:25;25.20;;;12.60;;
74528;SDS011;63009;52.584;5.932;2024-01-06T02:27:50;25.67;;;9.48;;
74528;SDS011;63009;52.584;5.932;2024-01-06T02:30:16;23.50;;;10.10;;
74528;SDS011;63009;52.584;5.932;2024-01-06T02:32:41;19.92;;;9.35;;
74528;SDS011;63009;52.584;5.932;2024-01-06T02:35:06;22.17;;;9.80;;
74528;SDS011;63009;52.584;5.932;2024-01-06T02:37:32;19.30;;;8.25;;
74528;SDS011;63009;52.584;5.932;2024-01-06T02:39:58;21.35;;;8.45;;
74528;SDS011;63009;52.584;5.932;2024-01-06T02:42:23;20.55;;;8.27;;
74528;SDS011;63009;52.584;5.932;2024-01-06T02:44:50;20.45;;;9.70;;
74528;SDS011;63009;52.584;5.932;2024-01-06T02:47:15;21.33;;;8.77;;
74528;SDS011;63009;52.584;5.932;2024-01-06T02:49:41;20.40;;;10.07;;
74528;SDS011;63009;52.584;5.932;2024-01-06T02:52:06;21.02;;;8.95;;
74528;SDS011;63009;52.584;5.932;2024-01-06T02:54:31;19.65;;;8.75;;
74528;SDS011;63009;52.584;5.932;2024-01-06T02:56:57;21.17;;;9.10;;
74528;SDS011;63009;52.584;5.932;2024-01-06T02:59:24;21.30;;;9.00;;
74528;SDS011;63009;52.584;5.932;2024-01-06T03:01:50;19.70;;;8.82;;
74528;SDS011;63009;52.584;5.932;2024-01-06T03:04:15;21.10;;;8.30;;
74528;SDS011;63009;52.584;5.932;2024-01-06T03:06:40;19.42;;;8.55;;
74528;SDS011;63009;52.584;5.932;2024-01-06T03:09:06;21.13;;;9.80;;
74528;SDS011;63009;52.584;5.932;2024-01-06T03:11:31;24.33;;;10.77;;
74528;SDS011;63009;52.584;5.932;2024-01-06T03:13:56;21.95;;;10.57;;
74528;SDS011;63009;52.584;5.932;2024-01-06T03:16:22;22.27;;;9.03;;
74528;SDS011;63009;52.584;5.932;2024-01-06T03:18:47;19.02;;;8.30;;
74528;SDS011;63009;52.584;5.932;2024-01-06T03:21:17;22.65;;;10.45;;
74528;SDS011;63009;52.584;5.932;2024-01-06T03:23:43;23.30;;;9.95;;
74528;SDS011;63009;52.584;5.932;2024-01-06T03:26:08;21.97;;;9.40;;
74528;SDS011;63009;52.584;5.932;2024-01-06T03:28:34;22.48;;;8.63;;
74528;SDS011;63009;52.584;5.932;2024-01-06T03:30:59;17.83;;;8.70;;
74528;SDS011;63009;52.584;5.932;2024-01-06T03:33:24;20.50;;;8.82;;
74528;SDS011;63009;52.584;5.932;2024-01-06T03:35:50;18.42;;;8.63;;
74528;SDS011;63009;52.584;5.932;2024-01-06T03:38:15;20.60;;;9.30;;
74528;SDS011;63009;52.584;5.932;2024-01-06T03:40:40;19.93;;;9.53;;
74528;SDS011;63009;52.584;5.932;2024-01-06T03:43:06;19.70;;;8.13;;
74528;SDS011;63009;52.584;5.932;2024-01-06T03:45:31;17.35;;;7.72;;
74528;SDS011;63009;52.584;5.932;2024-01-06T03:47:56;24.42;;;10.02;;
74528;SDS011;63009;52.584;5.932;2024-01-06T03:50:21;19.43;;;8.33;;
74528;SDS011;63009;52.584;5.932;2024-01-06T03:52:47;18.03;;;8.23;;
74528;SDS011;63009;52.584;5.932;2024-01-06T03:55:13;16.50;;;8.43;;
74528;SDS011;63009;52.584;5.932;2024-01-06T03:57:41;18.83;;;7.72;;
74528;SDS011;63009;52.584;5.932;2024-01-06T04:00:06;19.13;;;8.70;;
74528;SDS011;63009;52.584;5.932;2024-01-06T04:02:32;17.10;;;6.90;;
74528;SDS011;63009;52.584;5.932;2024-01-06T04:04:58;18.48;;;8.20;;
74528;SDS011;63009;52.584;5.932;2024-01-06T04:07:23;20.40;;;8.57;;
74528;SDS011;63009;52.584;5.932;2024-01-06T04:09:48;18.48;;;7.78;;
74528;SDS011;63009;52.584;5.932;2024-01-06T04:12:14;17.30;;;8.88;;
74528;SDS011;63009;52.584;5.932;2024-01-06T04:14:42;18.10;;;8.80;;
74528;SDS011;63009;52.584;5.932;2024-01-06T04:17:08;19.42;;;9.07;;
74528;SDS011;63009;52.584;5.932;2024-01-06T04:19:33;20.70;;;8.90;;
74528;SDS011;63009;52.584;5.932;2024-01-06T04:21:59;18.30;;;7.50;;
74528;SDS011;63009;52.584;5.932;2024-01-06T04:24:24;20.75;;;9.40;;
74528;SDS011;63009;52.584;5.932;2024-01-06T04:26:50;19.55;;;9.32;;
74528;SDS011;63009;52.584;5.932;2024-01-06T04:29:15;21.02;;;8.85;;
74528;SDS011;63009;52.584;5.932;2024-01-06T04:31:41;17.95;;;7.68;;
74528;SDS011;63009;52.584;5.932;2024-01-06T04:34:06;19.60;;;9.02;;
74528;SDS011;63009;52.584;5.932;2024-01-06T04:36:31;17.85;;;8.77;;
74528;SDS011;63009;52.584;5.932;2024-01-06T04:38:57;20.80;;;8.80;;
74528;SDS011;63009;52.584;5.932;2024-01-06T04:41:22;18.38;;;8.13;;
74528;SDS011;63009;52.584;5.932;2024-01-06T04:43:47;17.98;;;9.55;;
74528;SDS011;63009;52.584;5.932;2024-01-06T04:46:13;16.52;;;7.18;;
74528;SDS011;63009;52.584;5.932;2024-01-06T04:48:40;21.57;;;9.07;;
74528;SDS011;63009;52.584;5.932;2024-01-06T04:51:06;19.67;;;8.05;;
74528;SDS011;63009;52.584;5.932;2024-01-06T04:53:35;19.80;;;8.07;;
74528;SDS011;63009;52.584;5.932;2024-01-06T04:56:00;17.65;;;9.10;;
74528;SDS011;63009;52.584;5.932;2024-01-06T04:58:26;19.50;;;8.97;;
74528;SDS011;63009;52.584;5.932;2024-01-06T05:00:51;20.60;;;9.20;;
74528;SDS011;63009;52.584;5.932;2024-01-06T05:03:17;18.35;;;8.55;;
74528;SDS011;63009;52.584;5.932;2024-01-06T05:05:43;18.60;;;8.85;;
74528;SDS011;63009;52.584;5.932;2024-01-06T05:08:08;19.33;;;8.25;;
74528;SDS011;63009;52.584;5.932;2024-01-06T05:10:33;20.75;;;8.82;;
74528;SDS011;63009;52.584;5.932;2024-01-06T05:12:59;17.92;;;8.48;;
74528;SDS011;63009;52.584;5.932;2024-01-06T05:15:24;21.30;;;9.23;;
74528;SDS011;63009;52.584;5.932;2024-01-06T05:17:49;18.80;;;8.95;;
74528;SDS011;63009;52.584;5.932;2024-01-06T05:20:15;17.87;;;8.90;;
74528;SDS011;63009;52.584;5.932;2024-01-06T05:22:40;15.05;;;7.57;;
74528;SDS011;63009;52.584;5.932;2024-01-06T05:25:05;22.38;;;10.13;;
74528;SDS011;63009;52.584;5.932;2024-01-06T05:27:31;20.33;;;9.18;;
74528;SDS011;63009;52.584;5.932;2024-01-06T05:29:56;19.95;;;9.18;;
74528;SDS011;63009;52.584;5.932;2024-01-06T05:32:22;20.10;;;9.90;;
74528;SDS011;63009;52.584;5.932;2024-01-06T05:34:48;18.70;;;8.73;;
74528;SDS011;63009;52.584;5.932;2024-01-06T05:37:13;22.05;;;9.73;;
74528;SDS011;63009;52.584;5.932;2024-01-06T05:39:39;18.45;;;8.38;;
74528;SDS011;63009;52.584;5.932;2024-01-06T05:42:05;17.77;;;9.05;;
74528;SDS011;63009;52.584;5.932;2024-01-06T05:44:31;23.63;;;10.90;;
74528;SDS011;63009;52.584;5.932;2024-01-06T05:46:56;23.08;;;9.93;;
74528;SDS011;63009;52.584;5.932;2024-01-06T05:49:21;23.17;;;10.30;;
74528;SDS011;63009;52.584;5.932;2024-01-06T05:51:48;20.30;;;9.07;;
74528;SDS011;63009;52.584;5.932;2024-01-06T05:54:14;23.13;;;10.43;;
74528;SDS011;63009;52.584;5.932;2024-01-06T05:56:39;19.30;;;8.80;;
74528;SDS011;63009;52.584;5.932;2024-01-06T05:59:04;20.88;;;8.82;;
74528;SDS011;63009;52.584;5.932;2024-01-06T06:01:30;22.25;;;9.63;;
74528;SDS011;63009;52.584;5.932;2024-01-06T06:03:55;19.33;;;8.45;;
74528;SDS011;63009;52.584;5.932;2024-01-06T06:06:20;23.80;;;10.83;;
74528;SDS011;63009;52.584;5.932;2024-01-06T06:08:46;24.35;;;10.30;;
74528;SDS011;63009;52.584;5.932;2024-01-06T06:11:13;23.08;;;9.23;;
74528;SDS011;63009;52.584;5.932;2024-01-06T06:13:39;20.30;;;9.70;;
74528;SDS011;63009;52.584;5.932;2024-01-06T06:16:06;22.88;;;10.98;;
74528;SDS011;63009;52.584;5.932;2024-01-06T06:18:32;20.95;;;10.57;;
74528;SDS011;63009;52.584;5.932;2024-01-06T06:20:58;24.10;;;10.27;;
74528;SDS011;63009;52.584;5.932;2024-01-06T06:23:24;20.55;;;9.02;;
74528;SDS011;63009;52.584;5.932;2024-01-06T06:25:49;25.30;;;11.05;;
74528;SDS011;63009;52.584;5.932;2024-01-06T06:28:14;23.08;;;9.73;;
74528;SDS011;63009;52.584;5.932;2024-01-06T06:30:42;23.50;;;10.48;;
74528;SDS011;63009;52.584;5.932;2024-01-06T06:33:08;21.80;;;11.13;;
74528;SDS011;63009;52.584;5.932;2024-01-06T06:35:33;21.25;;;10.07;;
74528;SDS011;63009;52.584;5.932;2024-01-06T06:37:58;20.25;;;9.85;;
74528;SDS011;63009;52.584;5.932;2024-01-06T06:40:24;21.20;;;10.02;;
74528;SDS011;63009;52.584;5.932;2024-01-06T06:42:49;23.43;;;10.87;;
74528;SDS011;63009;52.584;5.932;2024-01-06T06:45:14;22.33;;;10.48;;
74528;SDS011;63009;52.584;5.932;2024-01-06T06:47:40;24.13;;;10.25;;
74528;SDS011;63009;52.584;5.932;2024-01-06T06:50:05;20.73;;;9.27;;
74528;SDS011;63009;52.584;5.932;2024-01-06T06:52:31;23.73;;;11.35;;
74528;SDS011;63009;52.584;5.932;2024-01-06T06:54:56;21.77;;;10.48;;
74528;SDS011;63009;52.584;5.932;2024-01-06T06:57:22;18.95;;;9.70;;
74528;SDS011;63009;52.584;5.932;2024-01-06T06:59:49;24.35;;;8.05;;
74528;SDS011;63009;52.584;5.932;2024-01-06T07:02:14;23.75;;;10.07;;
74528;SDS011;63009;52.584;5.932;2024-01-06T07:04:40;19.73;;;9.95;;
74528;SDS011;63009;52.584;5.932;2024-01-06T07:07:05;20.38;;;8.85;;
74528;SDS011;63009;52.584;5.932;2024-01-06T07:09:30;19.00;;;8.70;;
74528;SDS011;63009;52.584;5.932;2024-01-06T07:11:55;23.07;;;9.90;;
74528;SDS011;63009;52.584;5.932;2024-01-06T07:14:22;21.65;;;10.18;;
74528;SDS011;63009;52.584;5.932;2024-01-06T07:16:47;20.02;;;9.27;;
74528;SDS011;63009;52.584;5.932;2024-01-06T07:19:12;20.60;;;9.13;;
74528;SDS011;63009;52.584;5.932;2024-01-06T07:21:38;19.45;;;9.13;;
74528;SDS011;63009;52.584;5.932;2024-01-06T07:24:03;18.57;;;8.70;;
74528;SDS011;63009;52.584;5.932;2024-01-06T07:26:28;20.95;;;8.82;;
74528;SDS011;63009;52.584;5.932;2024-01-06T07:28:54;22.30;;;10.13;;
74528;SDS011;63009;52.584;5.932;2024-01-06T07:31:19;20.20;;;9.68;;
74528;SDS011;63009;52.584;5.932;2024-01-06T07:33:45;25.52;;;10.55;;
74528;SDS011;63009;52.584;5.932;2024-01-06T07:36:10;18.52;;;8.95;;
74528;SDS011;63009;52.584;5.932;2024-01-06T07:38:36;21.08;;;9.60;;
74528;SDS011;63009;52.584;5.932;2024-01-06T07:41:01;23.50;;;9.73;;
74528;SDS011;63009;52.584;5.932;2024-01-06T07:43:27;20.75;;;9.95;;
74528;SDS011;63009;52.584;5.932;2024-01-06T07:45:52;21.05;;;10.82;;
74528;SDS011;63009;52.584;5.932;2024-01-06T07:48:17;23.30;;;11.38;;
74528;SDS011;63009;52.584;5.932;2024-01-06T07:50:43;18.60;;;9.30;;
74528;SDS011;63009;52.584;5.932;2024-01-06T07:53:08;20.67;;;9.57;;
74528;SDS011;63009;52.584;5.932;2024-01-06T07:55:33;19.55;;;9.85;;
74528;SDS011;63009;52.584;5.932;2024-01-06T07:57:59;19.07;;;8.97;;
74528;SDS011;63009;52.584;5.932;2024-01-06T08:00:24;17.57;;;8.10;;
74528;SDS011;63009;52.584;5.932;2024-01-06T08:02:50;15.05;;;7.57;;
74528;SDS011;63009;52.584;5.932;2024-01-06T08:05:15;16.92;;;8.32;;
74528;SDS011;63009;52.584;5.932;2024-01-06T08:07:43;17.30;;;9.20;;
74528;SDS011;63009;52.584;5.932;2024-01-06T08:10:09;15.77;;;7.63;;
74528;SDS011;63009;52.584;5.932;2024-01-06T08:12:34;16.15;;;8.20;;
74528;SDS011;63009;52.584;5.932;2024-01-06T08:14:59;17.08;;;8.93;;
74528;SDS011;63009;52.584;5.932;2024-01-06T08:17:25;15.25;;;7.55;;
74528;SDS011;63009;52.584;5.932;2024-01-06T08:19:50;18.00;;;7.95;;
74528;SDS011;63009;52.584;5.932;2024-01-06T08:22:15;17.25;;;8.70;;
74528;SDS011;63009;52.584;5.932;2024-01-06T08:24:43;19.38;;;8.77;;
74528;SDS011;63009;52.584;5.932;2024-01-06T08:27:09;16.70;;;8.13;;
74528;SDS011;63009;52.584;5.932;2024-01-06T08:29:34;17.23;;;8.37;;
74528;SDS011;63009;52.584;5.932;2024-01-06T08:32:00;19.17;;;8.57;;
74528;SDS011;63009;52.584;5.932;2024-01-06T08:34:25;13.95;;;7.28;;
74528;SDS011;63009;52.584;5.932;2024-01-06T08:36:52;16.90;;;8.38;;
74528;SDS011;63009;52.584;5.932;2024-01-06T08:39:17;17.83;;;8.00;;
74528;SDS011;63009;52.584;5.932;2024-01-06T08:41:42;17.33;;;8.80;;
74528;SDS011;63009;52.584;5.932;2024-01-06T08:44:08;18.15;;;8.20;;
74528;SDS011;63009;52.584;5.932;2024-01-06T08:46:33;16.17;;;7.80;;
74528;SDS011;63009;52.584;5.932;2024-01-06T08:48:58;20.15;;;8.82;;
74528;SDS011;63009;52.584;5.932;2024-01-06T08:51:25;18.27;;;8.80;;
74528;SDS011;63009;52.584;5.932;2024-01-06T08:53:51;15.40;;;8.05;;
74528;SDS011;63009;52.584;5.932;2024-01-06T08:56:17;14.57;;;7.38;;
74528;SDS011;63009;52.584;5.932;2024-01-06T08:58:42;16.58;;;7.70;;
74528;SDS011;63009;52.584;5.932;2024-01-06T09:01:08;16.15;;;8.00;;
74528;SDS011;63009;52.584;5.932;2024-01-06T09:03:34;17.05;;;7.63;;
74528;SDS011;63009;52.584;5.932;2024-01-06T09:05:59;15.80;;;8.77;;
74528;SDS011;63009;52.584;5.932;2024-01-06T09:08:25;17.48;;;8.38;;
74528;SDS011;63009;52.584;5.932;2024-01-06T09:10:50;14.55;;;7.97;;
74528;SDS011;63009;52.584;5.932;2024-01-06T09:13:22;17.23;;;8.50;;
74528;SDS011;63009;52.584;5.932;2024-01-06T09:15:48;16.85;;;8.20;;
74528;SDS011;63009;52.584;5.932;2024-01-06T09:18:13;16.45;;;8.05;;
74528;SDS011;63009;52.584;5.932;2024-01-06T09:20:39;15.83;;;7.90;;
74528;SDS011;63009;52.584;5.932;2024-01-06T09:23:04;16.42;;;9.45;;
74528;SDS011;63009;52.584;5.932;2024-01-06T09:25:29;17.33;;;8.80;;
74528;SDS011;63009;52.584;5.932;2024-01-06T09:27:55;15.68;;;8.10;;
74528;SDS011;63009;52.584;5.932;2024-01-06T09:30:20;22.98;;;8.52;;
74528;SDS011;63009;52.584;5.932;2024-01-06T09:32:46;16.58;;;8.70;;
74528;SDS011;63009;52.584;5.932;2024-01-06T09:35:11;16.25;;;8.35;;
74528;SDS011;63009;52.584;5.932;2024-01-06T09:37:36;15.88;;;7.78;;
74528;SDS011;63009;52.584;5.932;2024-01-06T09:40:02;18.20;;;8.95;;
74528;SDS011;63009;52.584;5.932;2024-01-06T09:42:27;17.00;;;8.48;;
74528;SDS011;63009;52.584;5.932;2024-01-06T09:44:53;16.25;;;8.00;;
74528;SDS011;63009;52.584;5.932;2024-01-06T09:47:18;17.52;;;8.18;;
74528;SDS011;63009;52.584;5.932;2024-01-06T09:49:48;17.15;;;8.93;;
74528;SDS011;63009;52.584;5.932;2024-01-06T09:52:15;17.83;;;8.52;;
74528;SDS011;63009;52.584;5.932;2024-01-06T09:54:46;17.20;;;8.60;;
74528;SDS011;63009;52.584;5.932;2024-01-06T09:57:16;16.33;;;8.73;;
74528;SDS011;63009;52.584;5.932;2024-01-06T09:59:44;18.02;;;9.10;;
74528;SDS011;63009;52.584;5.932;2024-01-06T10:02:10;18.70;;;8.45;;
74528;SDS011;63009;52.584;5.932;2024-01-06T10:04:40;20.13;;;9.75;;
74528;SDS011;63009;52.584;5.932;2024-01-06T10:07:05;17.80;;;9.25;;
74528;SDS011;63009;52.584;5.932;2024-01-06T10:09:31;18.45;;;8.57;;
74528;SDS011;63009;52.584;5.932;2024-01-06T10:11:57;19.65;;;10.80;;
74528;SDS011;63009;52.584;5.932;2024-01-06T10:14:23;16.80;;;8.60;;
74528;SDS011;63009;52.584;5.932;2024-01-06T10:16:49;20.88;;;9.77;;
74528;SDS011;63009;52.584;5.932;2024-01-06T10:19:15;17.73;;;8.43;;
74528;SDS011;63009;52.584;5.932;2024-01-06T10:21:41;17.83;;;9.07;;
74528;SDS011;63009;52.584;5.932;2024-01-06T10:24:09;20.20;;;10.05;;
74528;SDS011;63009;52.584;5.932;2024-01-06T10:26:34;19.20;;;9.23;;
74528;SDS011;63009;52.584;5.932;2024-01-06T10:29:00;19.02;;;8.75;;
74528;SDS011;63009;52.584;5.932;2024-01-06T10:31:25;18.47;;;9.47;;
74528;SDS011;63009;52.584;5.932;2024-01-06T10:33:51;20.20;;;10.13;;
74528;SDS011;63009;52.584;5.932;2024-01-06T10:36:17;16.80;;;8.57;;
74528;SDS011;63009;52.584;5.932;2024-01-06T10:38:44;15.75;;;7.50;;
74528;SDS011;63009;52.584;5.932;2024-01-06T10:41:09;17.55;;;8.50;;
74528;SDS011;63009;52.584;5.932;2024-01-06T10:43:36;17.65;;;8.60;;
74528;SDS011;63009;52.584;5.932;2024-01-06T10:46:06;16.67;;;8.10;;
74528;SDS011;63009;52.584;5.932;2024-01-06T10:48:36;15.75;;;8.15;;
74528;SDS011;63009;52.584;5.932;2024-01-06T10:51:09;20.08;;;9.13;;
74528;SDS011;63009;52.584;5.932;2024-01-06T10:53:35;19.13;;;8.98;;
74528;SDS011;63009;52.584;5.932;2024-01-06T10:56:02;20.65;;;8.93;;
74528;SDS011;63009;52.584;5.932;2024-01-06T10:58:29;19.42;;;9.32;;
74528;SDS011;63009;52.584;5.932;2024-01-06T11:00:58;18.27;;;9.43;;
74528;SDS011;63009;52.584;5.932;2024-01-06T11:03:25;19.98;;;9.82;;
74528;SDS011;63009;52.584;5.932;2024-01-06T11:05:53;19.50;;;9.65;;
74528;SDS011;63009;52.584;5.932;2024-01-06T11:08:18;20.90;;;10.55;;
74528;SDS011;63009;52.584;5.932;2024-01-06T11:10:46;18.85;;;9.18;;
74528;SDS011;63009;52.584;5.932;2024-01-06T11:13:12;19.50;;;10.23;;
74528;SDS011;63009;52.584;5.932;2024-01-06T11:18:13;16.92;;;8.38;;
74528;SDS011;63009;52.584;5.932;2024-01-06T11:21:21;16.88;;;7.03;;
74528;SDS011;63009;52.584;5.932;2024-01-06T11:26:45;17.02;;;7.55;;
74528;SDS011;63009;52.584;5.932;2024-01-06T11:29:14;17.50;;;9.15;;
74528;SDS011;63009;52.584;5.932;2024-01-06T11:31:39;17.77;;;9.00;;
74528;SDS011;63009;52.584;5.932;2024-01-06T11:34:17;18.80;;;8.75;;
74528;SDS011;63009;52.584;5.932;2024-01-06T11:36:44;18.25;;;8.45;;
74528;SDS011;63009;52.584;5.932;2024-01-06T11:42:03;19.15;;;9.55;;
74528;SDS011;63009;52.584;5.932;2024-01-06T11:44:28;19.00;;;8.00;;
74528;SDS011;63009;52.584;5.932;2024-01-06T11:46:56;19.15;;;8.75;;
74528;SDS011;63009;52.584;5.932;2024-01-06T11:49:26;16.23;;;8.13;;
74528;SDS011;63009;52.584;5.932;2024-01-06T11:51:53;16.77;;;8.20;;
74528;SDS011;63009;52.584;5.932;2024-01-06T11:54:19;18.95;;;9.82;;
74528;SDS011;63009;52.584;5.932;2024-01-06T11:56:46;19.50;;;9.60;;
74528;SDS011;63009;52.584;5.932;2024-01-06T11:59:12;16.83;;;8.32;;
74528;SDS011;63009;52.584;5.932;2024-01-06T12:01:37;18.50;;;8.73;;
74528;SDS011;63009;52.584;5.932;2024-01-06T12:04:06;19.65;;;9.90;;
74528;SDS011;63009;52.584;5.932;2024-01-06T12:06:32;17.40;;;9.10;;
74528;SDS011;63009;52.584;5.932;2024-01-06T12:09:04;17.77;;;9.60;;
74528;SDS011;63009;52.584;5.932;2024-01-06T12:11:30;18.50;;;8.52;;
74528;SDS011;63009;52.584;5.932;2024-01-06T12:13:55;18.15;;;8.82;;
74528;SDS011;63009;52.584;5.932;2024-01-06T12:16:20;19.07;;;9.63;;
74528;SDS011;63009;52.584;5.932;2024-01-06T12:18:47;17.63;;;8.32;;
74528;SDS011;63009;52.584;5.932;2024-01-06T12:21:12;16.35;;;8.82;;
74528;SDS011;63009;52.584;5.932;2024-01-06T12:23:38;21.45;;;8.15;;
74528;SDS011;63009;52.584;5.932;2024-01-06T12:26:03;18.23;;;7.95;;
74528;SDS011;63009;52.584;5.932;2024-01-06T12:28:29;17.08;;;8.30;;
74528;SDS011;63009;52.584;5.932;2024-01-06T12:30:54;16.63;;;8.57;;
74528;SDS011;63009;52.584;5.932;2024-01-06T12:33:20;16.92;;;8.35;;
74528;SDS011;63009;52.584;5.932;2024-01-06T12:35:45;19.15;;;9.35;;
74528;SDS011;63009;52.584;5.932;2024-01-06T12:38:10;18.10;;;8.85;;
74528;SDS011;63009;52.584;5.932;2024-01-06T12:40:36;19.75;;;9.32;;
74528;SDS011;63009;52.584;5.932;2024-01-06T12:43:03;16.00;;;8.60;;
74528;SDS011;63009;52.584;5.932;2024-01-06T12:45:31;16.90;;;7.88;;
74528;SDS011;63009;52.584;5.932;2024-01-06T12:47:56;19.17;;;9.38;;
74528;SDS011;63009;52.584;5.932;2024-01-06T12:50:22;19.10;;;9.23;;
74528;SDS011;63009;52.584;5.932;2024-01-06T12:52:47;19.80;;;8.90;;
74528;SDS011;63009;52.584;5.932;2024-01-06T12:55:12;20.63;;;10.57;;
74528;SDS011;63009;52.584;5.932;2024-01-06T12:57:38;21.10;;;10.25;;
74528;SDS011;63009;52.584;5.932;2024-01-06T13:00:04;21.23;;;11.23;;
74528;SDS011;63009;52.584;5.932;2024-01-06T13:02:31;21.50;;;11.00;;
74528;SDS011;63009;52.584;5.932;2024-01-06T13:04:56;22.42;;;11.93;;
74528;SDS011;63009;52.584;5.932;2024-01-06T13:07:21;22.85;;;11.05;;
74528;SDS011;63009;52.584;5.932;2024-01-06T13:09:47;23.23;;;12.00;;
74528;SDS011;63009;52.584;5.932;2024-01-06T13:12:13;20.40;;;10.73;;
74528;SDS011;63009;52.584;5.932;2024-01-06T13:14:38;17.67;;;9.23;;
74528;SDS011;63009;52.584;5.932;2024-01-06T13:17:04;19.83;;;9.20;;
74528;SDS011;63009;52.584;5.932;2024-01-06T13:19:30;19.33;;;9.60;;
74528;SDS011;63009;52.584;5.932;2024-01-06T13:21:55;19.70;;;9.97;;
74528;SDS011;63009;52.584;5.932;2024-01-06T13:24:21;19.30;;;9.00;;
74528;SDS011;63009;52.584;5.932;2024-01-06T13:26:47;14.52;;;7.75;;
74528;SDS011;63009;52.584;5.932;2024-01-06T13:29:13;17.70;;;8.75;;
74528;SDS011;63009;52.584;5.932;2024-01-06T13:31:38;16.50;;;8.05;;
74528;SDS011;63009;52.584;5.932;2024-01-06T13:34:05;16.67;;;8.50;;
74528;SDS011;63009;52.584;5.932;2024-01-06T13:36:31;17.77;;;8.05;;
74528;SDS011;63009;52.584;5.932;2024-01-06T13:38:56;19.13;;;8.93;;
74528;SDS011;63009;52.584;5.932;2024-01-06T13:41:22;16.10;;;7.57;;
74528;SDS011;63009;52.584;5.932;2024-01-06T13:43:47;19.40;;;9.38;;
74528;SDS011;63009;52.584;5.932;2024-01-06T13:46:12;18.08;;;7.93;;
74528;SDS011;63009;52.584;5.932;2024-01-06T13:48:41;18.02;;;9.18;;
74528;SDS011;63009;52.584;5.932;2024-01-06T13:51:06;17.15;;;8.32;;
74528;SDS011;63009;52.584;5.932;2024-01-06T13:53:32;16.05;;;7.63;;
74528;SDS011;63009;52.584;5.932;2024-01-06T13:55:57;18.58;;;9.93;;
74528;SDS011;63009;52.584;5.932;2024-01-06T13:58:23;18.33;;;9.15;;
74528;SDS011;63009;52.584;5.932;2024-01-06T14:00:48;18.30;;;8.30;;
74528;SDS011;63009;52.584;5.932;2024-01-06T14:03:14;17.63;;;8.57;;
74528;SDS011;63009;52.584;5.932;2024-01-06T14:05:39;17.08;;;8.65;;
74528;SDS011;63009;52.584;5.932;2024-01-06T14:08:05;18.23;;;9.45;;
74528;SDS011;63009;52.584;5.932;2024-01-06T14:10:31;18.02;;;9.45;;
74528;SDS011;63009;52.584;5.932;2024-01-06T14:12:56;19.20;;;10.38;;
74528;SDS011;63009;52.584;5.932;2024-01-06T14:15:22;20.40;;;11.02;;
74528;SDS011;63009;52.584;5.932;2024-01-06T14:17:48;17.48;;;8.35;;
74528;SDS011;63009;52.584;5.932;2024-01-06T14:20:15;17.92;;;9.45;;
74528;SDS011;63009;52.584;5.932;2024-01-06T14:22:43;19.42;;;10.02;;
74528;SDS011;63009;52.584;5.932;2024-01-06T14:25:09;16.50;;;7.88;;
74528;SDS011;63009;52.584;5.932;2024-01-06T14:27:34;16.40;;;8.70;;
74528;SDS011;63009;52.584;5.932;2024-01-06T14:30:00;15.00;;;8.70;;
74528;SDS011;63009;52.584;5.932;2024-01-06T14:32:26;15.48;;;7.72;;